Terminal Aerodrome Forecast
Issued by NWS

Home | Current Version | Previous Version | Text Only | Print | Product List | Glossary On
Versions: 1 2 3 4 5 6 7 8 9 10 11 12 13
000
FTUS45 KPSR 221120
TAFSDL
TAF
KSDL 221120Z 2212/2312 VRB04KT P6SM SCT130
     FM222200 24005KT P6SM FEW110 FEW200
     FM230400 VRB03KT P6SM FEW120 SCT250=

USA.gov is the U.S. government's official web portal to all federal, state and local government web resources and services.